createdAt,value
2022-10-30T00:02:03.555Z,6.70
2022-10-30T00:04:32.158Z,6.53
2022-10-30T00:07:06.633Z,6.07
2022-10-30T00:09:35.585Z,6.25
2022-10-30T00:12:03.774Z,6.57
2022-10-30T00:14:34.429Z,6.18
2022-10-30T00:17:04.180Z,6.45
2022-10-30T00:19:35.101Z,6.07
2022-10-30T00:24:35.419Z,6.32
2022-10-30T00:27:08.900Z,7.43
2022-10-30T00:29:37.536Z,6.80
2022-10-30T00:32:18.786Z,7.05
2022-10-30T00:34:52.575Z,6.28
2022-10-30T00:37:20.523Z,6.25
2022-10-30T00:39:49.158Z,6.60
2022-10-30T00:42:31.138Z,7.72
2022-10-30T00:45:01.338Z,7.70
2022-10-30T00:47:37.957Z,6.05
2022-10-30T00:50:15.695Z,5.97
2022-10-30T00:52:52.786Z,6.15
2022-10-30T00:55:32.625Z,5.90
2022-10-30T00:58:46.627Z,6.22
2022-10-30T01:01:22.281Z,5.88
2022-10-30T01:04:37.156Z,7.03
2022-10-30T01:07:25.757Z,5.70
2022-10-30T01:10:02.411Z,5.97
2022-10-30T01:12:30.799Z,6.00
2022-10-30T01:15:15.715Z,5.78
2022-10-30T01:18:15.142Z,6.20
2022-10-30T01:21:29.539Z,5.65
2022-10-30T01:24:14.853Z,5.95
2022-10-30T01:26:57.675Z,5.93
2022-10-30T01:29:53.333Z,6.13
2022-10-30T01:32:39.090Z,7.75
2022-10-30T01:35:11.709Z,7.57
2022-10-30T01:38:13.422Z,7.00
2022-10-30T01:40:59.155Z,7.03
2022-10-30T01:43:38.348Z,5.05
2022-10-30T01:46:25.280Z,5.82
2022-10-30T01:49:42.564Z,5.63
2022-10-30T01:52:27.140Z,5.63
2022-10-30T01:59:55.433Z,5.28
2022-10-30T02:02:24.144Z,5.32
2022-10-30T02:04:54.410Z,5.25
2022-10-30T02:07:22.744Z,5.70
2022-10-30T02:09:57.390Z,6.03
2022-10-30T02:12:48.462Z,5.38
2022-10-30T02:15:53.198Z,5.95
2022-10-30T02:18:21.129Z,4.90
2022-10-30T02:20:50.498Z,5.72
2022-10-30T02:23:18.947Z,4.65
2022-10-30T02:26:01.918Z,5.60
2022-10-30T02:28:49.351Z,5.55
2022-10-30T02:31:27.049Z,5.53
2022-10-30T02:44:45.059Z,5.70
2022-10-30T02:47:17.280Z,5.70
2022-10-30T02:49:47.819Z,5.43
2022-10-30T02:52:21.063Z,6.10
2022-10-30T02:54:50.025Z,5.57
2022-10-30T03:34:36.537Z,5.80
2022-10-30T03:45:11.748Z,5.80
2022-10-30T03:47:41.065Z,6.03
2022-10-30T03:50:25.409Z,5.13
2022-10-30T03:53:13.738Z,6.38
2022-10-30T03:55:43.476Z,5.93
2022-10-30T03:58:13.679Z,5.47
2022-10-30T04:00:49.323Z,6.63
2022-10-30T04:03:21.127Z,5.60
2022-10-30T04:06:09.986Z,5.25
2022-10-30T04:08:40.054Z,6.10
2022-10-30T04:11:12.384Z,5.47
2022-10-30T04:13:41.476Z,6.22
2022-10-30T04:16:13.835Z,6.00
2022-10-30T04:18:42.966Z,5.78
2022-10-30T04:21:47.770Z,6.07
2022-10-30T04:24:21.667Z,6.55
2022-10-30T04:30:09.313Z,6.43
2022-10-30T04:33:45.301Z,5.97
2022-10-30T04:51:27.981Z,5.95
2022-10-30T04:54:25.590Z,5.68
2022-10-30T04:57:15.871Z,6.00
2022-10-30T05:03:52.093Z,5.95
2022-10-30T05:06:52.074Z,6.10
2022-10-30T05:10:28.160Z,6.22
2022-10-30T05:14:40.257Z,5.70
2022-10-30T05:32:44.569Z,6.60
2022-10-30T05:35:41.638Z,6.35
2022-10-30T05:38:54.411Z,6.10
2022-10-30T05:45:39.005Z,5.60
2022-10-30T05:48:33.424Z,6.13
2022-10-30T05:51:40.618Z,5.88
2022-10-30T05:54:55.939Z,6.13
2022-10-30T05:58:02.488Z,6.10
2022-10-30T06:00:47.233Z,5.75
2022-10-30T06:03:21.570Z,5.83
2022-10-30T06:05:55.567Z,5.82
2022-10-30T06:08:27.141Z,5.88
2022-10-30T06:10:58.415Z,5.70
2022-10-30T06:13:41.795Z,5.50
2022-10-30T06:16:12.790Z,6.83
2022-10-30T06:18:59.447Z,6.22
2022-10-30T06:21:31.263Z,6.40
2022-10-30T06:24:35.459Z,6.00
2022-10-30T06:27:24.762Z,6.10
2022-10-30T06:29:54.837Z,6.23
2022-10-30T06:32:23.698Z,7.10
2022-10-30T06:34:53.111Z,6.93
2022-10-30T06:37:28.404Z,6.53
2022-10-30T06:39:56.948Z,6.00
2022-10-30T06:42:45.980Z,6.60
2022-10-30T06:45:46.484Z,7.15
2022-10-30T06:48:14.465Z,6.35
2022-10-30T06:50:47.870Z,6.20
2022-10-30T06:53:17.526Z,6.97
2022-10-30T06:55:45.635Z,6.30
2022-10-30T06:58:39.132Z,6.57
2022-10-30T07:01:13.641Z,6.20
2022-10-30T07:04:05.931Z,7.00
2022-10-30T07:06:35.451Z,6.35
2022-10-30T07:20:13.987Z,4.20
2022-10-30T07:22:41.862Z,4.05
2022-10-30T07:25:12.287Z,4.03
2022-10-30T07:27:58.732Z,3.95
2022-10-30T07:30:36.707Z,4.70
2022-10-30T07:33:30.929Z,5.22
2022-10-30T07:36:15.421Z,5.15
2022-10-30T07:46:10.893Z,6.20
2022-10-30T07:49:08.221Z,6.20
2022-10-30T07:51:50.136Z,6.80
2022-10-30T07:54:19.163Z,5.13
2022-10-30T07:56:48.489Z,6.20
2022-10-30T07:59:38.055Z,5.85
2022-10-30T08:02:21.633Z,5.22
2022-10-30T08:05:14.106Z,5.18
2022-10-30T08:08:00.862Z,5.95
2022-10-30T08:10:29.576Z,5.28
2022-10-30T08:12:58.115Z,3.90
2022-10-30T08:15:27.679Z,4.75
2022-10-30T08:17:56.568Z,4.18
2022-10-30T08:20:25.832Z,4.20
2022-10-30T08:22:56.946Z,4.38
2022-10-30T08:25:34.683Z,4.50
2022-10-30T08:28:20.561Z,4.20
2022-10-30T08:31:16.756Z,4.32
2022-10-30T08:35:03.158Z,4.22
2022-10-30T09:05:21.902Z,4.25
2022-10-30T09:08:08.555Z,4.20
2022-10-30T09:10:59.585Z,3.95
2022-10-30T09:13:27.976Z,4.05
2022-10-30T09:16:01.121Z,4.15
2022-10-30T09:18:32.062Z,4.13
2022-10-30T09:21:04.701Z,4.20
2022-10-30T09:23:48.096Z,3.72
2022-10-30T09:26:39.996Z,4.05
2022-10-30T09:29:15.093Z,3.47
2022-10-30T09:32:02.220Z,3.42
2022-10-30T09:34:33.903Z,4.13
2022-10-30T09:37:16.553Z,3.83
2022-10-30T09:39:47.364Z,3.85
2022-10-30T09:42:48.833Z,3.75
2022-10-30T09:45:53.237Z,3.80
2022-10-30T09:48:49.087Z,3.25
2022-10-30T09:54:53.485Z,3.75
2022-10-30T09:57:32.007Z,4.10
2022-10-30T10:00:10.318Z,3.78
2022-10-30T10:02:57.926Z,3.45
2022-10-30T10:05:42.253Z,3.63
2022-10-30T10:08:37.797Z,3.97
2022-10-30T10:11:28.514Z,3.70
2022-10-30T10:14:01.681Z,3.25
2022-10-30T10:16:31.969Z,3.00
2022-10-30T10:19:05.204Z,3.60
2022-10-30T10:21:36.853Z,3.38
2022-10-30T10:24:19.764Z,3.47
2022-10-30T10:26:50.607Z,3.90
2022-10-30T10:29:38.505Z,3.63
2022-10-30T10:32:20.814Z,3.45
2022-10-30T10:35:07.190Z,3.78
2022-10-30T10:37:43.870Z,3.75
2022-10-30T10:40:29.334Z,4.20
2022-10-30T10:43:09.862Z,3.88
2022-10-30T10:45:44.935Z,3.53
2022-10-30T10:48:38.195Z,3.78
2022-10-30T10:51:10.381Z,3.83
2022-10-30T10:53:45.692Z,3.45
2022-10-30T10:56:15.150Z,4.13
2022-10-30T10:58:50.615Z,3.53
2022-10-30T11:01:22.716Z,4.05
2022-10-30T11:03:57.387Z,3.35
2022-10-30T11:06:28.804Z,3.55
2022-10-30T11:09:13.221Z,3.60
2022-10-30T11:11:42.534Z,3.90
2022-10-30T11:14:15.276Z,3.65
2022-10-30T11:16:54.848Z,3.55
2022-10-30T11:19:24.839Z,3.80
2022-10-30T11:21:56.280Z,3.65
2022-10-30T11:24:30.117Z,3.80
2022-10-30T11:27:17.321Z,3.80
2022-10-30T11:29:53.301Z,3.58
2022-10-30T11:32:22.904Z,5.75
2022-10-30T11:35:02.708Z,3.95
2022-10-30T11:37:32.503Z,3.65
2022-10-30T11:40:04.298Z,3.95
2022-10-30T11:42:34.182Z,3.40
2022-10-30T11:45:02.220Z,4.25
2022-10-30T11:50:17.495Z,3.67
2022-10-30T11:52:51.392Z,3.50
2022-10-30T11:55:21.758Z,3.42
2022-10-30T11:57:53.470Z,3.58
2022-10-30T12:00:24.832Z,4.00
2022-10-30T12:03:07.002Z,3.10
2022-10-30T12:05:42.425Z,3.22
2022-10-30T12:08:23.032Z,3.95
2022-10-30T12:11:05.342Z,3.30
2022-10-30T12:13:50.824Z,3.15
2022-10-30T12:16:32.386Z,3.15
2022-10-30T12:19:07.188Z,3.63
2022-10-30T12:21:51.292Z,3.33
2022-10-30T12:24:51.807Z,3.55
2022-10-30T12:27:23.580Z,3.42
2022-10-30T12:30:14.092Z,3.70
2022-10-30T12:33:07.312Z,3.40
2022-10-30T12:35:48.135Z,3.05
2022-10-30T12:38:29.026Z,3.63
2022-10-30T12:41:19.247Z,3.85
2022-10-30T12:43:53.463Z,3.58
2022-10-30T12:46:33.424Z,2.97
2022-10-30T12:49:10.595Z,4.00
2022-10-30T12:51:50.849Z,3.72
2022-10-30T12:54:26.749Z,3.22
2022-10-30T12:57:04.940Z,3.33
2022-10-30T12:59:40.580Z,3.13
2022-10-30T13:02:22.860Z,2.97
2022-10-30T13:04:57.780Z,3.65
2022-10-30T13:07:31.294Z,3.42
2022-10-30T13:10:13.834Z,2.88
2022-10-30T13:12:45.180Z,3.22
2022-10-30T13:15:22.270Z,3.40
2022-10-30T13:17:52.257Z,3.28
2022-10-30T13:20:21.346Z,2.90
2022-10-30T13:22:55.385Z,3.63
2022-10-30T13:25:28.657Z,2.97
2022-10-30T13:28:02.579Z,3.08
2022-10-30T13:30:35.247Z,3.33
2022-10-30T13:33:12.585Z,3.53
2022-10-30T13:35:47.048Z,2.90
2022-10-30T13:38:35.792Z,3.28
2022-10-30T13:41:11.062Z,3.50
2022-10-30T13:43:50.092Z,3.10
2022-10-30T13:46:28.290Z,3.13
2022-10-30T13:49:13.639Z,2.85
2022-10-30T13:51:45.165Z,3.42
2022-10-30T13:54:20.915Z,3.30
2022-10-30T13:56:50.040Z,3.97
2022-10-30T13:59:41.077Z,3.55
2022-10-30T14:02:23.456Z,3.15
2022-10-30T14:04:58.864Z,3.40
2022-10-30T14:07:34.561Z,3.47
2022-10-30T14:10:08.647Z,4.00
2022-10-30T14:12:50.481Z,3.40
2022-10-30T14:15:27.240Z,3.67
2022-10-30T14:18:27.146Z,3.17
2022-10-30T14:20:58.058Z,3.10
2022-10-30T14:23:29.714Z,3.45
2022-10-30T14:26:21.447Z,3.92
2022-10-30T14:28:50.841Z,3.75
2022-10-30T14:31:20.045Z,3.42
2022-10-30T14:33:50.428Z,3.85
2022-10-30T14:36:24.551Z,3.80
2022-10-30T14:39:00.299Z,4.10
2022-10-30T14:41:48.761Z,3.38
2022-10-30T14:44:26.141Z,3.80
2022-10-30T14:47:20.800Z,3.75
2022-10-30T14:49:51.582Z,3.60
2022-10-30T14:52:31.222Z,3.83
2022-10-30T14:55:23.179Z,3.30
2022-10-30T14:57:54.201Z,3.65
2022-10-30T15:00:39.643Z,3.47
2022-10-30T15:03:18.352Z,3.08
2022-10-30T15:05:55.888Z,3.90
2022-10-30T15:08:54.058Z,3.70
2022-10-30T15:14:39.948Z,4.60
2022-10-30T15:17:42.246Z,3.55
2022-10-30T15:20:41.299Z,3.83
2022-10-30T15:23:16.740Z,4.57
2022-10-30T15:25:48.696Z,4.28
2022-10-30T15:28:22.616Z,4.20
2022-10-30T15:35:37.177Z,3.50
2022-10-30T15:38:07.235Z,3.53
2022-10-30T15:40:38.435Z,4.15
2022-10-30T15:54:51.730Z,3.65
2022-10-30T16:44:27.400Z,3.97
2022-10-30T16:52:59.241Z,3.78
2022-10-30T16:55:30.983Z,4.30
2022-10-30T16:58:02.889Z,5.60
2022-10-30T17:00:36.784Z,6.55
2022-10-30T17:03:10.715Z,6.68
2022-10-30T17:05:41.279Z,7.07
2022-10-30T17:08:36.959Z,7.28
2022-10-30T17:11:17.160Z,7.65
2022-10-30T17:14:02.268Z,6.18
2022-10-30T17:16:32.334Z,6.70
2022-10-30T17:19:02.168Z,5.80
2022-10-30T17:21:39.169Z,4.22
2022-10-30T17:24:20.912Z,4.30
2022-10-30T17:26:57.668Z,4.40
2022-10-30T17:29:45.824Z,4.68
2022-10-30T17:32:21.146Z,4.78
2022-10-30T17:34:49.907Z,4.57
2022-10-30T17:37:18.810Z,5.15
2022-10-30T17:39:46.885Z,4.45
2022-10-30T17:42:16.626Z,4.55
2022-10-30T17:44:46.577Z,4.72
2022-10-30T17:47:17.514Z,4.78
2022-10-30T17:49:49.601Z,4.50
2022-10-30T17:52:20.998Z,4.65
2022-10-30T17:54:49.268Z,4.40
2022-10-30T17:57:23.036Z,4.35
2022-10-30T17:59:59.193Z,4.80
2022-10-30T18:02:27.603Z,4.80
2022-10-30T18:05:15.143Z,4.10
2022-10-30T18:07:47.605Z,4.07
2022-10-30T18:10:16.548Z,4.03
2022-10-30T18:12:46.628Z,3.75
2022-10-30T18:19:28.199Z,4.30
2022-10-30T18:21:58.192Z,4.00
2022-10-30T18:24:29.584Z,4.95
2022-10-30T18:26:58.598Z,4.50
2022-10-30T18:29:30.004Z,5.10
2022-10-30T18:31:58.514Z,5.13
2022-10-30T18:34:26.672Z,5.13
2022-10-30T18:36:55.093Z,4.10
2022-10-30T18:39:24.227Z,4.63
2022-10-30T18:42:16.324Z,4.28
2022-10-30T18:44:48.116Z,4.32
2022-10-30T18:47:21.746Z,4.53
2022-10-30T18:50:43.344Z,4.80
2022-10-30T18:56:44.384Z,4.60
2022-10-30T18:59:12.404Z,4.57
2022-10-30T19:01:40.726Z,4.78
2022-10-30T19:04:10.446Z,6.30
2022-10-30T19:06:38.962Z,5.15
2022-10-30T19:09:07.697Z,4.95
2022-10-30T19:11:38.373Z,4.35
2022-10-30T19:14:13.406Z,4.50
2022-10-30T19:16:41.623Z,4.22
2022-10-30T19:19:09.556Z,4.88
2022-10-30T19:21:37.643Z,4.72
2022-10-30T19:24:13.056Z,4.47
2022-10-30T19:26:41.100Z,4.20
2022-10-30T19:29:09.071Z,4.53
2022-10-30T19:31:38.367Z,4.55
2022-10-30T19:34:06.371Z,5.05
2022-10-30T19:36:36.902Z,4.40
2022-10-30T19:39:11.126Z,3.92
2022-10-30T19:41:39.979Z,4.53
2022-10-30T19:44:08.089Z,5.10
2022-10-30T19:46:36.647Z,4.65
2022-10-30T19:49:16.985Z,5.03
2022-10-30T19:51:44.956Z,4.18
2022-10-30T19:54:13.075Z,4.78
2022-10-30T19:56:42.996Z,4.82
2022-10-30T19:59:12.693Z,4.55
2022-10-30T20:01:41.625Z,4.75
2022-10-30T20:04:11.387Z,5.05
2022-10-30T20:06:39.424Z,5.88
2022-10-30T20:09:10.012Z,7.68
2022-10-30T20:11:38.061Z,12.25
2022-10-30T20:14:06.124Z,9.90
2022-10-30T20:16:34.159Z,5.93
2022-10-30T20:19:02.311Z,5.68
2022-10-30T20:21:32.122Z,5.35
2022-10-30T20:24:00.208Z,5.63
2022-10-30T20:26:30.318Z,5.00
2022-10-30T20:28:59.825Z,5.25
2022-10-30T20:31:27.948Z,5.75
2022-10-30T20:33:55.985Z,5.78
2022-10-30T20:36:23.948Z,5.78
2022-10-30T20:38:53.337Z,5.20
2022-10-30T20:41:23.611Z,5.68
2022-10-30T20:43:51.901Z,5.13
2022-10-30T20:46:20.445Z,5.63
2022-10-30T20:48:48.743Z,5.50
2022-10-30T20:51:16.850Z,5.50
2022-10-30T20:53:44.623Z,5.13
2022-10-30T20:56:13.873Z,6.15
2022-10-30T20:58:43.500Z,5.07
2022-10-30T21:01:11.758Z,5.35
2022-10-30T21:03:39.646Z,5.32
2022-10-30T21:06:09.697Z,5.35
2022-10-30T21:08:37.814Z,5.55
2022-10-30T21:11:07.494Z,5.55
2022-10-30T21:13:37.337Z,5.30
2022-10-30T21:16:07.982Z,5.60
2022-10-30T21:18:36.133Z,10.43
2022-10-30T21:21:07.074Z,5.78
2022-10-30T21:23:35.133Z,6.07
2022-10-30T21:26:04.487Z,5.95
2022-10-30T21:28:32.647Z,6.07
2022-10-30T21:31:03.420Z,7.13
2022-10-30T21:33:31.904Z,6.78
2022-10-30T21:36:10.591Z,7.70
2022-10-30T21:38:41.860Z,6.50
2022-10-30T21:41:10.141Z,6.97
2022-10-30T21:43:38.092Z,5.70
2022-10-30T21:46:08.313Z,5.47
2022-10-30T21:48:36.124Z,5.28
2022-10-30T21:51:11.779Z,5.35
2022-10-30T21:53:40.214Z,5.90
2022-10-30T21:56:09.995Z,5.50
2022-10-30T21:58:38.029Z,5.63
2022-10-30T22:01:07.947Z,5.65
2022-10-30T22:03:35.696Z,5.53
2022-10-30T22:06:08.630Z,5.68
2022-10-30T22:08:36.513Z,5.03
2022-10-30T22:11:05.616Z,5.10
2022-10-30T22:13:33.777Z,5.75
2022-10-30T22:16:01.766Z,6.70
2022-10-30T22:18:31.484Z,6.30
2022-10-30T22:21:03.216Z,5.75
2022-10-30T22:23:31.550Z,6.43
2022-10-30T22:26:01.068Z,6.60
2022-10-30T22:28:29.985Z,6.55
2022-10-30T22:31:02.636Z,7.82
2022-10-30T22:33:32.821Z,11.25
2022-10-30T22:36:05.843Z,8.95
2022-10-30T22:38:33.795Z,9.25
2022-10-30T22:41:09.350Z,8.95
2022-10-30T22:43:37.264Z,6.70
2022-10-30T22:46:05.156Z,5.95
2022-10-30T22:48:34.435Z,6.45
2022-10-30T22:51:05.253Z,6.13
2022-10-30T22:53:34.075Z,6.43
2022-10-30T22:56:12.149Z,5.80
2022-10-30T22:58:39.954Z,6.13
2022-10-30T23:01:10.465Z,5.60
2022-10-30T23:03:40.212Z,6.00
2022-10-30T23:06:08.692Z,7.17
2022-10-30T23:08:37.450Z,7.45
2022-10-30T23:11:06.365Z,7.43
2022-10-30T23:13:36.750Z,6.57
2022-10-30T23:16:07.207Z,6.60
2022-10-30T23:18:36.079Z,6.73
2022-10-30T23:21:08.080Z,6.90
2022-10-30T23:23:37.180Z,6.70
2022-10-30T23:26:07.338Z,6.97
2022-10-30T23:28:35.519Z,7.07
2022-10-30T23:31:04.929Z,6.90
2022-10-30T23:33:32.884Z,7.67
2022-10-30T23:36:01.274Z,6.77
2022-10-30T23:38:30.770Z,7.50
2022-10-30T23:40:58.777Z,7.57
2022-10-30T23:43:26.633Z,7.63
2022-10-30T23:45:54.673Z,6.47
2022-10-30T23:48:22.702Z,7.87
2022-10-30T23:50:50.680Z,8.30
2022-10-30T23:53:18.573Z,6.37
2022-10-30T23:55:53.029Z,6.03
2022-10-30T23:58:21.393Z,7.37
